Time;durP1;ratioP1;P1;durP2;ratioP2;P2;SDS_P1;SDS_P2;PMS_P1;PMS_P2;Temp;Humidity;BMP_temperature;BMP_pressure;BME280_temperature;BME280_humidity;BME280_pressure;Samples;Min_cycle;Max_cycle;Signal;HPM_P1;HPM_P2
2023/04/06 00:02:51;;;;;;;41.03;29.83;;;29.30;54.90;;;;;;1906534;73;21127;-74
2023/04/06 00:05:23;;;;;;;41.23;29.02;;;29.30;55.70;;;;;;1880931;75;21825;-74
2023/04/06 00:07:55;;;;;;;40.28;29.60;;;29.30;55.10;;;;;;1966975;72;21173;-75
2023/04/06 00:10:26;;;;;;;40.95;31.80;;;29.30;54.90;;;;;;1976335;72;21244;-74
2023/04/06 00:12:59;;;;;;;37.08;28.52;;;29.30;55.10;;;;;;1971542;72;21568;-73
2023/04/06 00:15:30;;;;;;;39.58;30.90;;;29.30;54.60;;;;;;1972812;72;21111;-76
2023/04/06 00:18:01;;;;;;;41.92;31.15;;;29.30;54.90;;;;;;1967919;72;21139;-74
2023/04/06 00:20:32;;;;;;;43.85;33.28;;;29.40;55.00;;;;;;1971181;72;21233;-73
2023/04/06 00:23:03;;;;;;;46.53;33.42;;;29.40;55.00;;;;;;1970932;71;21046;-72
2023/04/06 00:25:35;;;;;;;45.12;31.60;;;29.40;55.10;;;;;;1953706;72;21205;-74
2023/04/06 00:28:06;;;;;;;37.95;31.85;;;29.40;55.00;;;;;;1965476;72;21153;-74
2023/04/06 00:30:37;;;;;;;37.75;31.35;;;29.50;54.70;;;;;;1946476;72;21629;-73
2023/04/06 00:33:08;;;;;;;41.80;31.65;;;29.50;54.60;;;;;;1972922;72;21130;-74
2023/04/06 00:35:39;;;;;;;43.42;31.17;;;29.50;54.40;;;;;;1975726;72;21185;-73
2023/04/06 00:38:10;;;;;;;40.92;30.95;;;29.60;54.30;;;;;;1966632;72;21669;-74
2023/04/06 00:40:42;;;;;;;37.48;28.92;;;29.60;54.10;;;;;;1957869;73;21466;-73
2023/04/06 00:43:13;;;;;;;44.00;29.77;;;29.70;53.00;;;;;;1969631;73;21100;-74
2023/04/06 00:45:46;;;;;;;37.40;28.15;;;29.70;52.50;;;;;;1966758;72;21119;-74
2023/04/06 00:48:17;;;;;;;36.65;28.73;;;29.80;52.30;;;;;;1974334;72;21122;-74
2023/04/06 00:50:48;;;;;;;40.52;28.45;;;29.80;52.00;;;;;;1969950;72;21126;-74
2023/04/06 00:53:20;;;;;;;37.95;28.42;;;29.80;52.00;;;;;;1969270;73;21109;-73
2023/04/06 00:55:51;;;;;;;38.35;28.05;;;29.90;51.70;;;;;;1911265;75;21129;-74
2023/04/06 00:58:22;;;;;;;38.25;29.32;;;29.90;51.80;;;;;;1886189;75;21192;-73
2023/04/06 01:00:53;;;;;;;40.75;29.72;;;29.90;51.90;;;;;;1881743;75;21565;-74
2023/04/06 01:03:24;;;;;;;41.15;29.70;;;30.00;52.00;;;;;;1908472;75;21139;-73
2023/04/06 01:05:58;;;;;;;41.02;30.00;;;30.00;51.80;;;;;;1967810;71;21060;-72
2023/04/06 01:08:34;;;;;;;39.48;30.23;;;30.10;51.80;;;;;;1972760;72;21135;-72
2023/04/06 01:11:06;;;;;;;40.88;29.00;;;30.10;51.70;;;;;;1968162;73;21169;-73
2023/04/06 01:13:38;;;;;;;36.93;29.50;;;30.20;52.10;;;;;;1913049;73;21083;-74
2023/04/06 01:16:09;;;;;;;37.83;29.80;;;30.30;52.20;;;;;;1880595;75;21159;-74
2023/04/06 01:18:42;;;;;;;39.67;30.17;;;30.30;52.60;;;;;;1903012;75;21204;-72
2023/04/06 01:21:15;;;;;;;34.70;30.45;;;30.30;52.20;;;;;;1904744;75;21255;-73
2023/04/06 01:23:49;;;;;;;35.98;29.67;;;30.40;52.20;;;;;;1900006;75;21107;-71
2023/04/06 01:26:20;;;;;;;41.58;29.57;;;30.50;51.70;;;;;;1874334;76;21190;-72
2023/04/06 01:28:52;;;;;;;40.35;30.92;;;30.50;52.00;;;;;;1900198;75;21585;-72
2023/04/06 01:31:23;;;;;;;40.03;30.10;;;30.50;52.20;;;;;;1888666;75;21111;-72
2023/04/06 01:33:54;;;;;;;41.05;31.45;;;30.50;52.50;;;;;;1875224;75;21192;-71
2023/04/06 01:36:25;;;;;;;44.98;30.40;;;30.60;52.40;;;;;;1902043;75;21079;-74
2023/04/06 01:38:57;;;;;;;40.17;29.80;;;30.60;52.30;;;;;;1899777;75;21130;-73
2023/04/06 01:41:28;;;;;;;42.88;30.72;;;30.70;52.10;;;;;;1900192;75;21213;-73
2023/04/06 01:43:59;;;;;;;37.95;31.20;;;30.80;52.50;;;;;;1921765;73;21104;-73
2023/04/06 01:46:31;;;;;;;45.60;31.35;;;30.90;52.30;;;;;;1896000;75;22000;-72
2023/04/06 01:49:02;;;;;;;43.92;30.32;;;30.90;52.10;;;;;;1897626;74;21151;-74
2023/04/06 01:51:33;;;;;;;39.65;31.17;;;31.00;52.10;;;;;;1885686;75;21625;-72
2023/04/06 01:54:05;;;;;;;39.78;28.98;;;31.10;51.70;;;;;;1892969;76;21122;-88
2023/04/06 01:56:36;;;;;;;45.65;30.90;;;31.10;51.60;;;;;;1883260;76;21131;-88
2023/04/06 01:59:07;;;;;;;58.48;31.60;;;31.20;50.10;;;;;;1909377;74;21185;-89
2023/04/06 02:01:39;;;;;;;48.58;30.48;;;31.30;49.30;;;;;;1886734;75;21070;-89
2023/04/06 02:04:10;;;;;;;49.98;30.40;;;31.30;49.40;;;;;;1963209;72;21124;-88
2023/04/06 02:06:41;;;;;;;60.95;31.17;;;31.40;49.70;;;;;;1912114;74;21168;-88
2023/04/06 02:09:12;;;;;;;46.33;30.75;;;31.50;49.70;;;;;;1893775;75;21138;-86
2023/04/06 02:11:44;;;;;;;41.88;30.77;;;31.60;49.10;;;;;;1886882;76;21115;-84
2023/04/06 02:14:15;;;;;;;41.60;30.52;;;31.60;48.80;;;;;;1878653;76;21084;-84
2023/04/06 02:16:46;;;;;;;43.73;32.25;;;31.70;49.00;;;;;;1873643;76;21209;-85
2023/04/06 02:19:17;;;;;;;38.48;31.02;;;31.80;48.60;;;;;;1909977;75;21119;-84
2023/04/06 02:21:48;;;;;;;38.53;30.55;;;31.90;48.40;;;;;;1882410;75;21197;-87
2023/04/06 02:24:20;;;;;;;41.37;30.72;;;31.90;48.20;;;;;;1916556;74;21223;-88
2023/04/06 02:26:53;;;;;;;38.35;31.52;;;32.00;47.40;;;;;;1906184;74;21059;-86
2023/04/06 02:29:24;;;;;;;41.77;30.60;;;32.10;47.80;;;;;;1960736;72;21107;-87
2023/04/06 02:31:55;;;;;;;42.10;31.30;;;32.20;47.60;;;;;;1972657;73;21085;-86
2023/04/06 02:34:26;;;;;;;42.45;30.57;;;32.30;47.50;;;;;;1913363;74;21605;-88
2023/04/06 02:36:57;;;;;;;42.45;31.10;;;32.40;47.40;;;;;;1928634;73;21205;-85
2023/04/06 02:39:28;;;;;;;39.33;29.00;;;32.60;46.40;;;;;;1952994;73;21083;-88
2023/04/06 02:42:00;;;;;;;51.80;31.35;;;32.70;46.40;;;;;;1951345;73;21043;-87
2023/04/06 02:44:31;;;;;;;42.73;30.08;;;32.70;46.40;;;;;;1942286;73;21135;-92
2023/04/06 02:47:02;;;;;;;46.50;31.65;;;32.90;46.70;;;;;;1952753;72;21105;-88
2023/04/06 02:49:33;;;;;;;43.42;32.42;;;33.00;46.20;;;;;;1954462;73;21117;-91
2023/04/06 02:52:04;;;;;;;40.08;30.88;;;33.20;45.90;;;;;;1942024;73;21146;-91
2023/04/06 02:54:38;;;;;;;42.95;31.70;;;33.20;45.70;;;;;;1908483;73;21176;-88
2023/04/06 02:57:09;;;;;;;40.60;31.35;;;33.30;45.60;;;;;;1969614;72;21666;-89
2023/04/06 02:59:40;;;;;;;43.65;31.27;;;33.40;45.30;;;;;;1963275;72;21204;-91
2023/04/06 03:02:11;;;;;;;41.83;30.70;;;33.40;45.10;;;;;;1988191;72;21090;-91
2023/04/06 03:04:42;;;;;;;41.28;29.57;;;33.50;45.00;;;;;;1961423;72;21206;-92
2023/04/06 03:07:13;;;;;;;37.60;30.02;;;33.60;44.60;;;;;;1972106;72;21523;-88
2023/04/06 03:09:44;;;;;;;45.17;32.88;;;33.70;44.10;;;;;;1925490;74;21116;-92
2023/04/06 03:12:15;;;;;;;45.73;31.23;;;33.80;43.60;;;;;;1932660;74;21119;-91
2023/04/06 03:14:46;;;;;;;43.92;33.50;;;33.90;43.40;;;;;;1927728;72;21124;-87
2023/04/06 03:17:23;;;;;;;70.35;35.73;;;33.90;43.60;;;;;;1883150;72;21072;-89
2023/04/06 03:19:56;;;;;;;47.60;34.00;;;33.90;44.10;;;;;;1893099;72;21230;-91
2023/04/06 03:22:27;;;;;;;57.17;34.75;;;34.00;43.00;;;;;;1847232;76;21233;-92
2023/04/06 03:24:58;;;;;;;48.13;31.97;;;34.00;43.00;;;;;;1879826;76;21096;-92
2023/04/06 03:27:32;;;;;;;40.92;32.35;;;34.10;42.70;;;;;;1889820;75;21130;-92
2023/04/06 03:30:03;;;;;;;47.70;34.18;;;34.20;42.80;;;;;;1902830;74;21221;-90
2023/04/06 03:32:34;;;;;;;48.38;35.17;;;34.30;42.70;;;;;;1905749;75;21162;-88
2023/04/06 03:35:06;;;;;;;46.42;34.53;;;34.30;42.60;;;;;;1885710;76;21135;-91
2023/04/06 03:37:37;;;;;;;50.45;32.98;;;34.30;42.60;;;;;;1882199;76;21191;-90
2023/04/06 03:40:09;;;;;;;40.28;32.13;;;34.40;43.20;;;;;;1850747;76;21092;-92
2023/04/06 03:42:40;;;;;;;41.65;31.30;;;34.50;42.20;;;;;;1870468;76;21090;-89
2023/04/06 03:45:13;;;;;;;56.05;35.45;;;34.60;42.00;;;;;;1824319;77;21143;-89
2023/04/06 03:47:44;;;;;;;56.48;34.45;;;34.70;41.50;;;;;;1847628;78;21207;-90
2023/04/06 03:50:17;;;;;;;44.65;33.60;;;34.80;40.90;;;;;;1845502;77;21170;-88
2023/04/06 03:52:48;;;;;;;40.75;31.73;;;34.80;41.10;;;;;;1833802;78;21167;-90
2023/04/06 03:55:19;;;;;;;51.25;34.23;;;34.90;41.20;;;;;;1848099;78;21100;-89
2023/04/06 03:57:50;;;;;;;41.37;32.50;;;35.00;41.90;;;;;;1854162;77;21166;-89
2023/04/06 04:00:22;;;;;;;36.80;31.90;;;35.10;40.90;;;;;;1817145;78;21543;-88
2023/04/06 04:02:53;;;;;;;36.63;32.10;;;35.30;40.40;;;;;;1851548;77;21288;-89
2023/04/06 04:05:25;;;;;;;39.85;32.95;;;35.30;40.30;;;;;;1862436;75;21184;-86
2023/04/06 04:07:56;;;;;;;39.88;32.75;;;35.30;40.40;;;;;;1865395;76;21160;-85
2023/04/06 04:10:27;;;;;;;43.28;33.55;;;35.40;40.60;;;;;;1822440;77;21275;-89
2023/04/06 04:12:58;;;;;;;37.48;33.50;;;35.50;40.50;;;;;;1811746;77;21069;-86
2023/04/06 04:15:29;;;;;;;46.13;35.13;;;35.50;40.40;;;;;;1842236;76;21049;-90
2023/04/06 04:18:02;;;;;;;51.95;33.42;;;35.60;40.20;;;;;;1818651;78;21140;-89
2023/04/06 04:20:33;;;;;;;46.30;34.88;;;35.60;40.00;;;;;;1818344;77;21190;-86
2023/04/06 04:25:36;;;;;;;47.33;35.33;;;35.80;39.70;;;;;;1843366;72;21066;-87
2023/04/06 04:28:07;;;;;;;41.10;35.33;;;35.80;39.70;;;;;;1844595;77;21166;-89
2023/04/06 04:35:57;;;;;;;46.35;36.55;;;36.00;39.50;;;;;;1868079;73;21311;-89
2023/04/06 04:38:29;;;;;;;44.65;36.58;;;36.10;39.70;;;;;;1838564;77;21266;-89
2023/04/06 04:41:00;;;;;;;47.05;39.70;;;36.10;39.00;;;;;;1824376;78;21199;-89
2023/04/06 04:43:34;;;;;;;45.55;37.83;;;36.20;38.60;;;;;;1871999;76;21082;-89
2023/04/06 04:46:06;;;;;;;51.10;39.23;;;36.20;38.70;;;;;;1851644;75;21332;-93
2023/04/06 04:48:41;;;;;;;43.45;36.28;;;36.20;38.70;;;;;;1888280;74;21118;-89
2023/04/06 04:51:12;;;;;;;44.40;36.08;;;36.20;39.00;;;;;;1860395;76;21151;-93
2023/04/06 04:53:46;;;;;;;39.33;35.17;;;36.20;38.40;;;;;;1878868;76;21168;-89
2023/04/06 04:56:17;;;;;;;40.65;34.55;;;36.30;38.70;;;;;;1879750;74;21091;-92
2023/04/06 04:58:49;;;;;;;42.90;35.38;;;36.30;38.90;;;;;;1852809;76;21084;-86
2023/04/06 05:01:23;;;;;;;40.00;33.67;;;36.30;39.10;;;;;;1882934;76;21087;-89
2023/04/06 05:03:54;;;;;;;40.65;34.67;;;36.40;39.30;;;;;;1881208;74;21115;-90
2023/04/06 05:06:25;;;;;;;40.88;34.03;;;36.40;38.80;;;;;;1856549;74;21114;-88
2023/04/06 05:08:58;;;;;;;39.55;35.38;;;36.40;38.70;;;;;;1890380;75;21052;-84
2023/04/06 05:11:32;;;;;;;41.92;37.42;;;36.50;39.10;;;;;;1865850;75;21092;-90
2023/04/06 05:14:06;;;;;;;49.08;40.98;;;36.50;38.40;;;;;;1861289;76;21176;-89
2023/04/06 05:16:38;;;;;;;47.00;41.75;;;36.60;37.60;;;;;;1883146;73;21162;-84
2023/04/06 05:19:11;;;;;;;49.98;44.58;;;36.70;36.70;;;;;;1859257;76;21118;-89
2023/04/06 05:29:47;;;;;;;50.20;42.88;;;36.90;37.80;;;;;;1942846;71;21144;-84
2023/04/06 05:32:21;;;;;;;49.25;43.95;;;37.00;36.80;;;;;;1918607;71;21411;-87
2023/04/06 05:35:09;;;;;;;49.33;44.05;;;37.00;36.80;;;;;;1917841;72;21161;-92
2023/04/06 05:37:48;;;;;;;50.10;43.05;;;37.10;36.60;;;;;;1921881;72;21167;-88
2023/04/06 05:40:23;;;;;;;51.42;45.88;;;37.10;36.20;;;;;;1907398;72;21044;-89
2023/04/06 05:42:55;;;;;;;47.55;42.58;;;37.10;35.80;;;;;;1918173;73;21107;-95
2023/04/06 05:45:29;;;;;;;49.60;44.27;;;37.00;36.40;;;;;;1916673;73;21865;-93
2023/04/06 05:48:04;;;;;;;46.50;41.53;;;37.00;36.60;;;;;;1916575;75;21543;-92
2023/04/06 05:50:35;;;;;;;48.50;43.40;;;37.10;36.50;;;;;;1916340;75;21238;-95
2023/04/06 05:53:10;;;;;;;48.68;43.25;;;37.10;36.50;;;;;;1929656;73;21106;-91
2023/04/06 05:55:54;;;;;;;50.52;44.77;;;37.20;36.40;;;;;;1943246;70;21072;-92
2023/04/06 05:58:26;;;;;;;46.13;41.20;;;37.30;37.00;;;;;;1944620;72;21096;-89
2023/04/06 06:01:01;;;;;;;48.23;41.37;;;37.40;37.00;;;;;;1927166;73;21098;-89
2023/04/06 06:03:33;;;;;;;50.25;41.77;;;37.40;36.70;;;;;;1937802;73;21084;-88
2023/04/06 06:06:04;;;;;;;49.53;44.08;;;37.50;37.10;;;;;;1922192;73;21098;-93
2023/04/06 06:08:35;;;;;;;48.68;42.65;;;37.60;37.00;;;;;;1926488;72;21088;-91
2023/04/06 06:11:07;;;;;;;50.60;44.55;;;37.60;37.20;;;;;;1915263;72;21734;-91
2023/04/06 06:13:38;;;;;;;53.15;46.10;;;37.70;37.00;;;;;;1914644;75;21206;-95
2023/04/06 06:16:10;;;;;;;49.25;43.90;;;37.70;37.30;;;;;;1914576;75;21175;-95
2023/04/06 06:18:41;;;;;;;46.42;41.68;;;37.70;37.10;;;;;;1914307;75;21051;-93
2023/04/06 06:21:12;;;;;;;48.65;42.65;;;37.70;37.30;;;;;;1898131;74;21434;-93
2023/04/06 06:23:44;;;;;;;53.78;44.30;;;37.70;37.20;;;;;;1944217;73;21100;-91
2023/04/06 06:26:16;;;;;;;50.98;45.58;;;37.80;37.30;;;;;;1915473;73;21150;-91
2023/04/06 06:28:47;;;;;;;49.88;43.00;;;37.80;36.90;;;;;;1915031;73;21193;-86
2023/04/06 06:31:20;;;;;;;51.37;44.10;;;37.80;37.00;;;;;;1918337;74;21256;-89
2023/04/06 06:33:52;;;;;;;48.68;43.68;;;37.70;37.30;;;;;;1847088;76;21106;-88
2023/04/06 06:36:23;;;;;;;51.63;46.23;;;37.70;37.00;;;;;;1887268;76;21183;-92
2023/04/06 06:38:54;;;;;;;50.78;45.52;;;37.60;37.30;;;;;;1882303;76;21191;-90
2023/04/06 06:41:30;;;;;;;52.95;47.13;;;37.60;37.70;;;;;;1892045;74;21102;-91
2023/04/06 06:43:58;;;;;;;47.50;42.20;;;37.60;37.60;;;;;;1880317;75;21124;-92
2023/04/06 06:46:29;;;;;;;49.58;44.25;;;37.60;38.10;;;;;;1889903;75;21119;-90
2023/04/06 06:49:01;;;;;;;48.25;43.10;;;37.60;38.30;;;;;;1926437;74;21151;-89
2023/04/06 06:51:32;;;;;;;50.03;44.58;;;37.50;38.10;;;;;;1956165;73;21123;-91
2023/04/06 06:54:03;;;;;;;47.90;42.80;;;37.80;38.70;;;;;;1946827;72;21104;-92
2023/04/06 06:56:36;;;;;;;52.93;47.27;;;37.50;38.30;;;;;;1914718;75;21119;-91
2023/04/06 06:59:07;;;;;;;48.85;43.60;;;38.10;42.00;;;;;;1915700;75;21107;-89
2023/04/06 07:01:38;;;;;;;50.63;45.10;;;37.50;38.50;;;;;;1922348;73;21096;-84
2023/04/06 07:04:10;;;;;;;51.98;46.45;;;37.40;38.40;;;;;;1920067;72;21154;-82
2023/04/06 07:06:41;;;;;;;56.98;47.25;;;37.40;37.70;;;;;;1917278;73;21073;-87
2023/04/06 07:09:12;;;;;;;54.75;48.87;;;37.40;38.00;;;;;;1917545;74;21068;-90
2023/04/06 07:11:43;;;;;;;56.45;50.45;;;37.40;37.60;;;;;;1910111;72;21127;-92
2023/04/06 07:14:15;;;;;;;58.15;52.08;;;37.30;37.40;;;;;;1928322;74;21500;-88
2023/04/06 07:16:49;;;;;;;57.03;51.02;;;37.30;38.00;;;;;;1885471;75;21189;-88
2023/04/06 07:19:21;;;;;;;57.03;51.18;;;37.30;37.10;;;;;;1932671;73;21123;-92
2023/04/06 07:21:52;;;;;;;57.23;51.20;;;37.30;38.50;;;;;;1891828;75;21586;-90
2023/04/06 07:24:23;;;;;;;59.38;53.40;;;37.30;37.20;;;;;;1926042;73;21228;-91
2023/04/06 07:26:54;;;;;;;59.65;53.45;;;37.20;37.00;;;;;;1926728;73;21532;-88
2023/04/06 07:29:25;;;;;;;63.90;57.25;;;37.30;36.90;;;;;;1901638;75;21252;-88
2023/04/06 07:31:56;;;;;;;67.62;60.92;;;37.20;36.50;;;;;;1923607;73;21570;-87
2023/04/06 07:34:27;;;;;;;66.28;59.35;;;37.20;36.00;;;;;;1903023;75;21190;-87
2023/04/06 07:36:58;;;;;;;64.55;57.90;;;37.20;36.30;;;;;;1928643;73;21155;-88
2023/04/06 07:39:30;;;;;;;60.83;54.42;;;37.30;36.20;;;;;;1927853;73;21171;-91
2023/04/06 07:42:02;;;;;;;61.73;55.10;;;37.20;36.30;;;;;;1938491;73;21048;-90
2023/04/06 07:44:33;;;;;;;61.60;55.40;;;37.20;36.50;;;;;;1927758;73;21150;-88
2023/04/06 07:47:05;;;;;;;63.50;57.00;;;37.20;36.40;;;;;;1926580;74;21103;-87
2023/04/06 07:49:36;;;;;;;68.47;61.37;;;37.20;36.20;;;;;;1925348;74;21134;-86
2023/04/06 07:52:07;;;;;;;71.35;64.05;;;37.20;35.60;;;;;;1929920;73;21087;-88
2023/04/06 07:54:38;;;;;;;61.48;55.20;;;37.20;35.60;;;;;;1921521;74;21224;-90
2023/04/06 07:57:09;;;;;;;62.83;56.00;;;37.20;36.20;;;;;;1921730;74;21114;-89
2023/04/06 07:59:40;;;;;;;63.38;55.73;;;37.20;36.60;;;;;;1907100;75;21129;-87
2023/04/06 08:02:12;;;;;;;58.00;52.00;;;37.20;36.40;;;;;;1883525;76;21150;-88
2023/04/06 08:04:43;;;;;;;57.55;51.45;;;37.20;36.80;;;;;;1904075;74;21110;-86
2023/04/06 08:07:14;;;;;;;61.58;55.20;;;37.20;37.00;;;;;;1896792;75;21123;-88
2023/04/06 08:09:46;;;;;;;57.10;51.40;;;37.20;36.30;;;;;;1886696;75;21127;-87
2023/04/06 08:12:17;;;;;;;59.27;53.20;;;37.20;36.10;;;;;;1926378;73;21553;-89
2023/04/06 08:14:48;;;;;;;60.08;53.98;;;37.20;36.60;;;;;;1923673;73;21114;-88
2023/04/06 08:17:19;;;;;;;60.80;54.60;;;37.20;36.30;;;;;;1890075;75;21185;-91
2023/04/06 08:19:51;;;;;;;57.20;51.02;;;37.10;36.70;;;;;;1891514;75;21194;-88
2023/04/06 08:22:22;;;;;;;55.50;50.08;;;37.10;36.80;;;;;;1891945;75;21144;-88
2023/04/06 08:24:53;;;;;;;53.90;48.40;;;37.10;37.00;;;;;;1921454;73;21642;-92
2023/04/06 08:27:24;;;;;;;56.77;51.02;;;37.10;37.30;;;;;;1922019;73;21151;-89
2023/04/06 08:29:55;;;;;;;56.65;50.83;;;37.10;36.70;;;;;;1932286;73;21177;-86
2023/04/06 08:32:27;;;;;;;55.70;50.00;;;37.00;37.10;;;;;;1920711;74;21736;-88
2023/04/06 08:34:58;;;;;;;51.25;46.10;;;37.00;37.30;;;;;;1890689;75;21142;-90
2023/04/06 08:37:29;;;;;;;55.75;49.95;;;37.10;37.60;;;;;;1934833;73;21158;-89
2023/04/06 08:40:00;;;;;;;54.88;49.08;;;37.00;37.30;;;;;;1921519;73;21471;-90
2023/04/06 08:42:33;;;;;;;54.10;48.42;;;37.10;37.20;;;;;;1891734;75;21228;-90
2023/04/06 08:45:05;;;;;;;51.18;46.10;;;37.00;37.30;;;;;;1883644;75;21128;-89
2023/04/06 08:47:37;;;;;;;48.78;43.73;;;37.00;37.80;;;;;;1923800;74;21220;-89
2023/04/06 08:50:11;;;;;;;51.73;46.63;;;37.00;37.90;;;;;;1884784;76;21063;-88
2023/04/06 08:52:43;;;;;;;50.63;45.33;;;37.00;38.20;;;;;;1888656;75;21142;-91
2023/04/06 08:55:14;;;;;;;50.30;45.15;;;37.00;38.20;;;;;;1872621;75;21120;-89
2023/04/06 08:57:47;;;;;;;49.83;44.63;;;37.00;38.10;;;;;;1910258;73;21146;-89
2023/04/06 09:00:19;;;;;;;49.20;43.80;;;36.90;38.00;;;;;;1917255;73;21072;-87
2023/04/06 09:02:53;;;;;;;47.25;42.25;;;36.90;38.40;;;;;;1916645;73;21115;-87
2023/04/06 09:05:26;;;;;;;44.30;39.80;;;36.90;38.30;;;;;;1883030;76;21728;-88
2023/04/06 09:07:57;;;;;;;42.17;37.67;;;36.80;38.40;;;;;;1928834;73;21155;-88
2023/04/06 09:10:30;;;;;;;42.73;36.08;;;36.90;38.90;;;;;;1921660;73;21147;-89
2023/04/06 09:13:08;;;;;;;40.88;36.53;;;36.80;38.80;;;;;;1917217;73;21197;-89
2023/04/06 09:15:41;;;;;;;39.50;35.20;;;36.80;38.60;;;;;;1883027;75;21174;-87
2023/04/06 09:18:13;;;;;;;40.55;36.35;;;36.80;38.80;;;;;;1914344;73;21244;-88
2023/04/06 09:20:44;;;;;;;38.70;34.50;;;36.80;39.10;;;;;;1878058;75;21089;-89
2023/04/06 09:23:21;;;;;;;42.88;33.95;;;36.80;39.60;;;;;;1920138;73;21208;-88
2023/04/06 09:25:52;;;;;;;38.85;34.70;;;36.80;40.10;;;;;;1895696;74;21088;-86
2023/04/06 09:28:23;;;;;;;37.38;33.05;;;36.70;40.30;;;;;;1925983;73;21193;-86
2023/04/06 09:30:54;;;;;;;37.05;33.30;;;36.80;40.00;;;;;;1926033;73;21563;-85
2023/04/06 09:33:25;;;;;;;36.73;32.65;;;36.70;39.80;;;;;;1910223;73;21111;-88
2023/04/06 09:35:56;;;;;;;39.05;33.63;;;36.70;40.30;;;;;;1875495;76;21136;-88
2023/04/06 09:38:28;;;;;;;37.33;33.25;;;36.70;40.60;;;;;;1877863;75;21725;-87
2023/04/06 09:40:59;;;;;;;37.10;33.10;;;36.60;40.30;;;;;;1896665;74;21136;-84
2023/04/06 09:43:31;;;;;;;38.73;32.40;;;36.60;40.00;;;;;;1912171;73;21085;-88
2023/04/06 09:46:03;;;;;;;39.83;33.85;;;36.60;39.80;;;;;;1880437;74;21178;-86
2023/04/06 09:48:36;;;;;;;35.30;30.88;;;36.60;40.00;;;;;;1886601;75;21237;-84
2023/04/06 09:51:09;;;;;;;34.60;29.50;;;36.60;39.90;;;;;;1921379;73;21202;-85
2023/04/06 09:53:43;;;;;;;35.20;30.20;;;36.50;40.00;;;;;;1920876;73;21205;-88
2023/04/06 09:56:18;;;;;;;32.15;28.67;;;36.50;39.40;;;;;;1928888;73;21083;-88
2023/04/06 09:58:51;;;;;;;32.03;28.73;;;36.50;41.10;;;;;;1921199;73;21201;-85
2023/04/06 10:01:24;;;;;;;31.33;28.07;;;36.50;40.00;;;;;;1880558;74;21380;-89
2023/04/06 10:04:17;;;;;;;33.13;28.50;;;36.50;40.10;;;;;;1871124;76;21186;-87
2023/04/06 10:06:52;;;;;;;31.35;27.98;;;36.40;40.10;;;;;;1877195;75;21196;-87
2023/04/06 10:09:24;;;;;;;32.35;28.92;;;36.40;40.20;;;;;;1927177;73;21123;-88
2023/04/06 10:11:57;;;;;;;34.15;29.18;;;36.40;40.60;;;;;;1929957;73;21072;-85
2023/04/06 10:14:28;;;;;;;33.55;29.80;;;36.30;40.90;;;;;;1911067;73;21123;-89
2023/04/06 10:17:00;;;;;;;39.20;31.25;;;36.30;41.20;;;;;;1923185;73;21225;-88
2023/04/06 10:19:39;;;;;;;38.90;30.70;;;36.30;41.50;;;;;;1929634;73;21128;-87
2023/04/06 10:22:13;;;;;;;34.78;30.92;;;36.30;41.50;;;;;;1927032;73;21162;-86
2023/04/06 10:24:44;;;;;;;40.60;31.87;;;36.30;41.70;;;;;;1876693;76;21248;-88
2023/04/06 10:27:15;;;;;;;38.25;31.27;;;36.30;41.90;;;;;;1928334;73;21213;-90
2023/04/06 10:29:53;;;;;;;42.10;35.23;;;36.30;42.50;;;;;;1921820;73;21072;-86
2023/04/06 10:32:21;;;;;;;43.75;36.40;;;35.70;42.50;;;;;;1914563;73;21196;-79
2023/04/06 10:34:52;;;;;;;45.15;38.48;;;36.20;43.10;;;;;;1897054;74;21583;-73
2023/04/06 10:37:23;;;;;;;46.48;36.83;;;36.20;43.30;;;;;;1940107;73;21165;-72
2023/04/06 10:40:00;;;;;;;48.83;38.50;;;36.20;43.70;;;;;;1930724;73;21670;-73
2023/04/06 10:42:41;;;;;;;47.00;40.00;;;36.10;43.80;;;;;;1934394;73;21577;-72
2023/04/06 10:45:26;;;;;;;48.95;41.73;;;36.10;44.10;;;;;;1946734;73;21115;-74
2023/04/06 10:47:57;;;;;;;47.45;42.10;;;36.10;44.40;;;;;;1897496;74;21079;-72
2023/04/06 10:50:30;;;;;;;55.10;44.00;;;36.00;44.30;;;;;;1904735;75;21713;-72
2023/04/06 10:53:02;;;;;;;59.35;44.55;;;36.00;44.10;;;;;;1879597;75;21430;-72
2023/04/06 10:55:34;;;;;;;59.38;47.78;;;35.90;44.30;;;;;;1931749;73;22397;-75
2023/04/06 10:58:07;;;;;;;58.15;49.38;;;35.90;44.50;;;;;;1936073;73;21126;-85
2023/04/06 11:00:40;;;;;;;66.65;54.63;;;35.80;44.50;;;;;;1898256;75;21143;-86
2023/04/06 11:03:13;;;;;;;64.25;52.05;;;35.80;44.60;;;;;;1925112;73;21138;-86
2023/04/06 11:05:51;;;;;;;67.97;53.70;;;35.70;44.30;;;;;;1923242;73;21076;-85
2023/04/06 11:08:31;;;;;;;65.25;52.00;;;35.80;44.70;;;;;;1926395;73;21112;-83
2023/04/06 11:11:15;;;;;;;61.70;51.35;;;35.70;45.20;;;;;;1908275;73;21209;-85
2023/04/06 11:13:48;;;;;;;62.10;49.58;;;35.60;45.00;;;;;;1925495;73;21134;-85
2023/04/06 11:16:21;;;;;;;54.70;48.17;;;35.60;45.00;;;;;;1879356;76;21613;-85
2023/04/06 11:19:01;;;;;;;57.10;46.53;;;35.60;45.70;;;;;;1915522;73;21127;-85
2023/04/06 11:21:41;;;;;;;57.75;46.02;;;35.50;45.00;;;;;;1896609;75;21578;-86
2023/04/06 11:24:20;;;;;;;51.85;43.35;;;35.50;45.20;;;;;;1920818;73;21213;-86
2023/04/06 11:26:53;;;;;;;53.42;42.62;;;35.40;45.00;;;;;;1907084;75;21134;-85
2023/04/06 11:29:31;;;;;;;51.98;41.88;;;35.40;45.20;;;;;;1929374;73;21076;-84
2023/04/06 11:32:04;;;;;;;52.03;40.63;;;35.40;45.20;;;;;;1895481;75;21183;-85
2023/04/06 11:34:39;;;;;;;49.18;41.08;;;35.30;45.30;;;;;;1929226;73;21193;-85
2023/04/06 11:37:12;;;;;;;54.90;41.83;;;35.30;45.30;;;;;;1933685;73;21076;-83
2023/04/06 11:39:51;;;;;;;55.60;42.88;;;35.30;45.40;;;;;;1914695;73;21192;-85
2023/04/06 11:42:26;;;;;;;52.75;42.27;;;35.20;45.40;;;;;;1948132;73;21177;-85
2023/04/06 11:44:58;;;;;;;49.33;40.55;;;35.20;45.40;;;;;;1915803;74;21142;-86
2023/04/06 11:47:34;;;;;;;45.25;37.65;;;35.20;46.00;;;;;;1952259;73;21205;-85
2023/04/06 11:50:10;;;;;;;43.75;35.85;;;35.10;45.10;;;;;;1922837;73;21080;-85
2023/04/06 11:52:42;;;;;;;42.13;35.30;;;35.10;45.00;;;;;;1926610;73;21803;-85
2023/04/06 11:55:15;;;;;;;41.23;33.75;;;35.10;45.10;;;;;;1941319;73;21194;-86
2023/04/06 11:57:46;;;;;;;44.77;33.80;;;35.00;45.10;;;;;;1925083;73;21171;-84
2023/04/06 12:00:18;;;;;;;41.00;32.67;;;35.00;45.10;;;;;;1928229;73;21181;-87
2023/04/06 12:02:50;;;;;;;36.23;32.33;;;35.00;45.10;;;;;;1934634;73;21099;-85
2023/04/06 12:05:21;;;;;;;43.13;33.78;;;35.00;45.20;;;;;;1874734;76;21641;-84
2023/04/06 12:07:53;;;;;;;39.75;32.85;;;35.00;45.10;;;;;;1865532;76;21135;-84
2023/04/06 12:10:24;;;;;;;44.13;31.25;;;34.90;45.00;;;;;;1911094;74;21507;-85
2023/04/06 12:12:55;;;;;;;35.33;31.33;;;34.90;45.00;;;;;;1945813;73;21048;-84
2023/04/06 12:15:26;;;;;;;39.33;32.25;;;34.90;45.00;;;;;;1927808;73;21135;-83
2023/04/06 12:17:57;;;;;;;41.58;31.68;;;34.80;45.60;;;;;;1925155;73;21131;-83
2023/04/06 12:20:28;;;;;;;39.15;31.93;;;34.80;44.70;;;;;;1910578;73;21127;-83
2023/04/06 12:23:00;;;;;;;40.58;31.33;;;34.80;44.80;;;;;;1926454;73;21221;-83
2023/04/06 12:25:31;;;;;;;39.05;32.13;;;34.80;44.90;;;;;;1912895;73;21077;-82
2023/04/06 12:28:02;;;;;;;36.83;30.82;;;34.80;44.80;;;;;;1933066;73;21163;-82
2023/04/06 12:30:33;;;;;;;41.55;32.15;;;34.80;44.80;;;;;;1867444;75;21151;-82
2023/04/06 12:33:04;;;;;;;37.03;31.70;;;34.80;44.90;;;;;;1909139;74;21519;-83
2023/04/06 12:35:38;;;;;;;40.90;32.30;;;34.70;44.70;;;;;;1886914;75;21150;-84
2023/04/06 12:38:10;;;;;;;39.35;32.80;;;34.70;44.60;;;;;;1922833;73;21516;-84
2023/04/06 12:40:41;;;;;;;44.73;34.90;;;34.70;44.60;;;;;;1905205;73;21163;-84
2023/04/06 12:43:12;;;;;;;37.42;32.70;;;34.80;44.80;;;;;;1881572;75;21220;-84
2023/04/06 12:45:44;;;;;;;37.28;31.68;;;34.70;44.80;;;;;;1877209;75;21640;-83
2023/04/06 12:48:15;;;;;;;37.35;32.42;;;34.70;44.90;;;;;;1895728;74;21187;-84
2023/04/06 12:50:47;;;;;;;36.98;32.45;;;34.70;44.90;;;;;;1866703;75;21206;-83
2023/04/06 12:53:18;;;;;;;51.02;37.63;;;34.70;44.70;;;;;;1878138;75;21218;-83
2023/04/06 12:55:49;;;;;;;50.73;38.88;;;34.70;44.60;;;;;;1922580;73;21256;-84
2023/04/06 12:58:21;;;;;;;55.78;41.53;;;34.70;44.80;;;;;;1930069;74;21077;-83
2023/04/06 13:00:52;;;;;;;49.65;41.15;;;34.60;44.80;;;;;;1935467;73;21664;-84
2023/04/06 13:03:24;;;;;;;57.88;45.25;;;34.60;45.00;;;;;;1939620;73;21139;-83
2023/04/06 13:05:55;;;;;;;55.75;41.05;;;34.60;45.40;;;;;;1921990;73;21626;-84
2023/04/06 13:08:27;;;;;;;50.08;40.15;;;34.60;45.50;;;;;;1897245;74;21151;-84
2023/04/06 13:10:58;;;;;;;45.38;37.55;;;34.50;46.50;;;;;;1924691;73;21079;-83